createdAt,value
2018-07-23T00:00:06.780Z,100.00
2018-07-23T00:02:35.317Z,100.00
2018-07-23T00:05:06.940Z,100.00
2018-07-23T00:07:35.486Z,100.00
2018-07-23T00:10:04.066Z,100.00
2018-07-23T00:12:32.627Z,100.00
2018-07-23T00:15:01.175Z,100.00
2018-07-23T00:17:29.699Z,100.00
2018-07-23T00:19:58.238Z,100.00
2018-07-23T00:22:26.769Z,100.00
2018-07-23T00:24:55.320Z,100.00
2018-07-23T00:27:23.835Z,100.00
2018-07-23T00:29:52.381Z,100.00
2018-07-23T00:32:23.987Z,100.00
2018-07-23T00:34:53.578Z,100.00
2018-07-23T00:37:22.132Z,100.00
2018-07-23T00:39:53.999Z,100.00
2018-07-23T00:42:22.548Z,100.00
2018-07-23T00:44:52.048Z,100.00
2018-07-23T00:47:20.588Z,100.00
2018-07-23T00:49:50.171Z,100.00
2018-07-23T00:52:25.806Z,100.00
2018-07-23T00:54:58.451Z,100.00
2018-07-23T00:57:26.985Z,100.00
2018-07-23T01:00:04.247Z,100.00
2018-07-23T01:02:32.789Z,100.00
2018-07-23T01:05:06.727Z,100.00
2018-07-23T01:07:35.256Z,100.00
2018-07-23T01:10:14.438Z,100.00
2018-07-23T01:12:42.967Z,100.00
2018-07-23T01:15:14.897Z,100.00
2018-07-23T01:17:43.432Z,100.00
2018-07-23T01:20:19.612Z,100.00
2018-07-23T01:22:52.037Z,100.00
2018-07-23T01:25:20.575Z,100.00
2018-07-23T01:27:50.156Z,100.00
2018-07-23T01:30:20.642Z,100.00
2018-07-23T01:32:49.177Z,100.00
2018-07-23T01:35:19.648Z,100.00
2018-07-23T01:37:49.184Z,100.00
2018-07-23T01:40:17.709Z,100.00
2018-07-23T01:42:46.243Z,100.00
2018-07-23T01:45:20.266Z,100.00
2018-07-23T01:47:48.796Z,100.00
2018-07-23T01:50:19.282Z,100.00
2018-07-23T01:52:47.804Z,100.00
2018-07-23T01:55:16.335Z,100.00
2018-07-23T01:57:45.485Z,100.00
2018-07-23T02:00:16.032Z,100.00
2018-07-23T02:02:48.077Z,100.00
2018-07-23T02:05:16.633Z,100.00
2018-07-23T02:07:47.167Z,100.00
2018-07-23T02:14:09.089Z,100.00
2018-07-23T02:16:38.185Z,100.00
2018-07-23T02:19:07.257Z,100.00
2018-07-23T02:26:49.867Z,100.00
2018-07-23T02:29:20.873Z,100.00
2018-07-23T02:31:49.949Z,100.00
2018-07-23T02:34:19.990Z,100.00
2018-07-23T02:36:50.039Z,100.00
2018-07-23T02:39:19.110Z,100.00
2018-07-23T02:41:49.143Z,100.00
2018-07-23T02:44:19.110Z,100.00
2018-07-23T02:46:48.171Z,100.00
2018-07-23T02:51:53.030Z,100.00
2018-07-23T02:54:22.102Z,100.00
2018-07-23T02:56:51.182Z,100.00
2018-07-23T03:01:55.981Z,100.00
2018-07-23T03:04:25.051Z,100.00
2018-07-23T03:06:54.109Z,100.00
2018-07-23T03:09:23.178Z,100.00
2018-07-23T03:11:52.264Z,100.00
2018-07-23T03:14:21.394Z,100.00
2018-07-23T03:16:50.461Z,100.00
2018-07-23T03:21:55.451Z,100.00
2018-07-23T03:24:26.340Z,100.00
2018-07-23T03:26:55.433Z,100.00
2018-07-23T03:29:24.498Z,100.00
2018-07-23T03:32:02.957Z,100.00
2018-07-23T03:34:33.217Z,100.00
2018-07-23T03:37:02.290Z,100.00
2018-07-23T03:39:33.332Z,100.00
2018-07-23T03:42:10.013Z,100.00
2018-07-23T03:47:14.879Z,100.00
2018-07-23T03:49:43.989Z,100.00
2018-07-23T03:52:13.047Z,100.00
2018-07-23T03:54:42.737Z,100.00
2018-07-23T03:57:11.805Z,100.00
2018-07-23T03:59:45.229Z,100.00
2018-07-23T04:02:18.021Z,100.00
2018-07-23T04:04:47.128Z,100.00
2018-07-23T04:07:16.206Z,100.00
2018-07-23T04:09:45.294Z,100.00
2018-07-23T04:12:14.354Z,100.00
2018-07-23T04:14:43.515Z,100.00
2018-07-23T04:17:12.597Z,100.00
2018-07-23T04:19:41.785Z,100.00
2018-07-23T04:22:10.847Z,100.00
2018-07-23T04:24:39.930Z,100.00
2018-07-23T04:27:09.918Z,100.00
2018-07-23T04:29:38.986Z,100.00
2018-07-23T04:32:08.102Z,100.00
2018-07-23T04:34:38.245Z,100.00
2018-07-23T04:37:08.362Z,100.00
2018-07-23T04:39:37.426Z,100.00
2018-07-23T04:44:42.490Z,100.00
2018-07-23T04:47:12.579Z,100.00
2018-07-23T04:49:42.613Z,100.00
2018-07-23T04:52:12.646Z,100.00
2018-07-23T04:57:17.497Z,100.00
2018-07-23T05:02:22.357Z,100.00
2018-07-23T05:04:51.427Z,100.00
2018-07-23T05:07:20.498Z,100.00
2018-07-23T05:09:49.816Z,100.00
2018-07-23T05:12:18.856Z,100.00
2018-07-23T05:14:48.854Z,100.00
2018-07-23T05:17:17.925Z,100.00
2018-07-23T05:19:46.998Z,100.00
2018-07-23T05:22:16.072Z,100.00
2018-07-23T05:24:45.149Z,100.00
2018-07-23T05:27:15.120Z,100.00
2018-07-23T05:29:44.437Z,100.00
2018-07-23T05:32:13.509Z,100.00
2018-07-23T05:34:42.592Z,100.00
2018-07-23T05:39:47.495Z,100.00
2018-07-23T05:42:16.577Z,100.00
2018-07-23T05:44:46.033Z,100.00
2018-07-23T05:47:15.109Z,100.00
2018-07-23T05:52:19.677Z,100.00
2018-07-23T05:57:25.739Z,100.00
2018-07-23T05:59:54.849Z,100.00
2018-07-23T06:02:23.893Z,100.00
2018-07-23T06:04:52.963Z,100.00
2018-07-23T06:07:22.208Z,100.00
2018-07-23T06:09:51.267Z,100.00
2018-07-23T06:12:21.277Z,100.00
2018-07-23T06:14:50.438Z,100.00
2018-07-23T06:17:19.685Z,100.00
2018-07-23T06:22:25.664Z,100.00
2018-07-23T06:27:30.774Z,100.00
2018-07-23T06:29:59.903Z,100.00
2018-07-23T06:32:28.941Z,100.00
2018-07-23T06:34:58.325Z,100.00
2018-07-23T06:37:28.522Z,100.00
2018-07-23T06:39:57.581Z,100.00
2018-07-23T06:42:26.641Z,100.00
2018-07-23T06:44:56.074Z,100.00
2018-07-23T06:47:26.725Z,100.00
2018-07-23T06:49:56.799Z,100.00
2018-07-23T06:52:25.876Z,100.00
2018-07-23T06:54:55.427Z,100.00
2018-07-23T06:57:27.980Z,100.00
2018-07-23T06:59:57.057Z,100.00
2018-07-23T07:07:40.781Z,100.00
2018-07-23T07:10:15.092Z,100.00
2018-07-23T07:12:49.044Z,100.00
2018-07-23T07:15:22.924Z,100.00
2018-07-23T07:23:03.641Z,100.00
2018-07-23T07:25:32.963Z,100.00
2018-07-23T07:30:37.733Z,100.00
2018-07-23T07:33:06.989Z,99.85
2018-07-23T07:35:36.067Z,100.00
2018-07-23T07:38:05.197Z,100.00
2018-07-23T07:40:34.711Z,100.00
2018-07-23T07:43:03.775Z,99.32
2018-07-23T07:45:32.834Z,100.00
2018-07-23T07:48:01.930Z,99.12
2018-07-23T07:50:30.999Z,96.72
2018-07-23T07:53:00.981Z,97.66
2018-07-23T07:55:31.013Z,97.68
2018-07-23T07:58:00.250Z,93.64
2018-07-23T08:00:29.299Z,95.99
2018-07-23T08:02:58.365Z,95.70
2018-07-23T08:05:27.720Z,93.87
2018-07-23T08:07:58.392Z,93.44
2018-07-23T08:10:27.467Z,93.99
2018-07-23T08:15:32.332Z,90.69
2018-07-23T08:18:01.413Z,91.20
2018-07-23T08:23:06.283Z,91.07
2018-07-23T08:25:36.273Z,90.22
2018-07-23T08:28:05.521Z,88.20
2018-07-23T08:30:36.469Z,86.52
2018-07-23T08:33:06.551Z,87.06
2018-07-23T08:35:35.610Z,87.77
2018-07-23T08:40:40.472Z,84.10
2018-07-23T08:45:45.642Z,87.84
2018-07-23T08:48:14.795Z,86.24
2018-07-23T08:50:43.867Z,86.10
2018-07-23T08:53:13.133Z,83.59
2018-07-23T08:55:42.338Z,81.46
2018-07-23T08:58:11.383Z,79.95
2018-07-23T09:00:40.455Z,78.42
2018-07-23T09:03:09.878Z,80.20
2018-07-23T09:05:38.950Z,82.65
2018-07-23T09:08:08.024Z,79.97
2018-07-23T09:10:37.359Z,81.02
2018-07-23T09:13:06.426Z,80.30
2018-07-23T09:15:35.497Z,78.91
2018-07-23T09:18:04.588Z,75.40
2018-07-23T09:20:34.039Z,76.52
2018-07-23T09:23:03.090Z,78.58
2018-07-23T09:25:32.155Z,77.26
2018-07-23T09:28:01.586Z,77.87
2018-07-23T09:30:31.589Z,77.36
2018-07-23T09:33:06.191Z,74.27
2018-07-23T09:35:36.493Z,70.33
2018-07-23T09:38:07.490Z,68.52
2018-07-23T09:43:12.641Z,68.48
2018-07-23T09:45:41.787Z,68.26
2018-07-23T09:48:10.817Z,70.04
2018-07-23T09:50:40.243Z,66.96
2018-07-23T09:53:10.289Z,66.58
2018-07-23T09:55:40.354Z,66.60
2018-07-23T09:58:10.466Z,66.10
2018-07-23T10:03:15.419Z,62.84
2018-07-23T10:05:45.394Z,59.83
2018-07-23T10:08:14.504Z,58.05
2018-07-23T10:13:19.754Z,52.24
2018-07-23T10:15:49.785Z,53.38
2018-07-23T10:18:18.860Z,52.76
2018-07-23T10:20:47.934Z,47.02
2018-07-23T10:23:17.270Z,58.41
2018-07-23T10:25:46.332Z,50.10
2018-07-23T10:28:15.390Z,53.00
2018-07-23T10:30:44.725Z,53.68
2018-07-23T10:33:13.781Z,53.21
2018-07-23T10:38:18.561Z,58.00
2018-07-23T10:43:23.319Z,50.26
2018-07-23T10:45:53.333Z,54.55
2018-07-23T10:48:22.414Z,56.08
2018-07-23T10:50:52.697Z,53.24
2018-07-23T10:53:21.734Z,51.21
2018-07-23T10:55:51.755Z,45.81
2018-07-23T10:58:21.774Z,47.54
2018-07-23T11:00:50.994Z,47.78
2018-07-23T11:03:20.049Z,52.76
2018-07-23T11:05:49.113Z,55.80
2018-07-23T11:08:18.178Z,50.86
2018-07-23T11:10:47.249Z,45.75
2018-07-23T11:13:16.313Z,46.07
2018-07-23T11:15:45.565Z,45.41
2018-07-23T11:18:14.710Z,44.14
2018-07-23T11:20:43.780Z,47.04
2018-07-23T11:23:12.833Z,43.37
2018-07-23T11:28:17.739Z,43.84
2018-07-23T11:30:47.734Z,49.28
2018-07-23T11:33:17.050Z,51.59
2018-07-23T11:35:47.115Z,52.35
2018-07-23T11:38:16.184Z,53.20
2018-07-23T11:40:46.193Z,51.29
2018-07-23T11:43:15.325Z,48.60
2018-07-23T11:45:45.334Z,44.82
2018-07-23T11:48:14.381Z,39.59
2018-07-23T11:53:19.392Z,38.30
2018-07-23T11:55:48.557Z,44.18
2018-07-23T11:58:17.637Z,44.88
2018-07-23T12:00:46.739Z,48.49
2018-07-23T12:03:15.781Z,49.21
2018-07-23T12:05:45.136Z,48.32
2018-07-23T12:08:14.198Z,51.46
2018-07-23T12:10:45.214Z,50.19
2018-07-23T12:13:14.283Z,47.34
2018-07-23T12:15:43.501Z,48.13
2018-07-23T12:18:12.606Z,42.73
2018-07-23T12:20:42.669Z,40.60
2018-07-23T12:25:47.528Z,34.79
2018-07-23T12:28:16.939Z,33.59
2018-07-23T12:30:46.169Z,36.05
2018-07-23T12:33:15.209Z,40.24
2018-07-23T12:38:20.210Z,39.49
2018-07-23T12:40:49.260Z,35.56
2018-07-23T12:43:20.579Z,34.79
2018-07-23T12:45:49.628Z,34.10
2018-07-23T12:48:18.725Z,35.46
2018-07-23T12:50:47.885Z,35.54
2018-07-23T12:53:16.940Z,35.53
2018-07-23T12:55:46.026Z,37.00
2018-07-23T13:00:50.789Z,32.68
2018-07-23T13:03:19.849Z,34.86
2018-07-23T13:05:49.021Z,34.68
2018-07-23T13:08:18.173Z,37.92
2018-07-23T13:10:47.218Z,35.12
2018-07-23T13:13:16.599Z,35.30
2018-07-23T13:15:46.679Z,36.45
2018-07-23T13:18:15.768Z,38.98
2018-07-23T13:20:44.834Z,41.63
2018-07-23T13:23:14.251Z,40.76
2018-07-23T13:25:43.342Z,42.02
2018-07-23T13:28:12.387Z,46.11
2018-07-23T13:30:43.414Z,43.84
2018-07-23T13:33:14.822Z,45.28
2018-07-23T13:35:44.053Z,47.09
2018-07-23T13:38:16.556Z,44.20
2018-07-23T13:43:21.798Z,45.96
2018-07-23T13:45:50.883Z,41.40
2018-07-23T13:50:56.240Z,46.72
2018-07-23T13:53:32.431Z,46.29
2018-07-23T13:56:06.382Z,52.90
2018-07-23T13:58:35.424Z,54.81
2018-07-23T14:03:44.286Z,55.02
2018-07-23T14:06:15.323Z,52.68
2018-07-23T14:08:44.395Z,49.06
2018-07-23T14:11:13.440Z,45.08
2018-07-23T14:13:42.518Z,42.30
2018-07-23T14:16:12.674Z,40.06
2018-07-23T14:18:42.662Z,41.03
2018-07-23T14:21:13.185Z,37.88
2018-07-23T14:23:43.169Z,36.79
2018-07-23T14:26:12.255Z,39.54
2018-07-23T14:28:41.295Z,36.79
2018-07-23T14:31:10.723Z,38.21
2018-07-23T14:33:43.267Z,40.12
2018-07-23T14:36:12.451Z,45.71
2018-07-23T14:38:41.581Z,45.27
2018-07-23T14:41:10.565Z,43.17
2018-07-23T14:43:39.673Z,41.98
2018-07-23T14:46:08.721Z,38.65
2018-07-23T14:48:37.777Z,39.02
2018-07-23T14:51:07.128Z,37.11
2018-07-23T14:53:37.317Z,36.73
2018-07-23T14:56:06.381Z,40.33
2018-07-23T14:58:35.466Z,39.81
2018-07-23T15:03:40.314Z,44.95
2018-07-23T15:06:10.067Z,43.64
2018-07-23T15:11:15.590Z,44.65
2018-07-23T15:13:44.672Z,47.65
2018-07-23T15:18:52.857Z,53.65
2018-07-23T15:23:57.785Z,58.97
2018-07-23T15:26:30.334Z,62.10
2018-07-23T15:28:59.825Z,63.21
2018-07-23T15:31:28.906Z,64.10
2018-07-23T15:33:57.970Z,64.45
2018-07-23T15:36:31.337Z,66.40
2018-07-23T15:39:01.354Z,68.94
2018-07-23T15:41:30.610Z,67.63
2018-07-23T15:46:35.672Z,67.31
2018-07-23T15:49:04.725Z,67.82
2018-07-23T15:51:35.766Z,69.02
2018-07-23T15:54:04.849Z,67.92
2018-07-23T15:56:37.992Z,68.56
2018-07-23T15:59:07.049Z,69.50
2018-07-23T16:01:41.250Z,70.51
2018-07-23T16:09:22.669Z,63.60
2018-07-23T16:11:52.693Z,60.24
2018-07-23T16:16:57.673Z,53.35
2018-07-23T16:19:26.744Z,55.19
2018-07-23T16:22:00.364Z,58.36
2018-07-23T16:24:29.465Z,63.66
2018-07-23T16:27:00.511Z,67.26
2018-07-23T16:29:29.689Z,65.01
2018-07-23T16:34:34.588Z,64.32
2018-07-23T16:39:39.208Z,68.10
2018-07-23T16:42:08.536Z,68.63
2018-07-23T16:44:39.765Z,65.82
2018-07-23T16:47:08.809Z,66.97
2018-07-23T16:49:38.884Z,66.77
2018-07-23T16:52:17.436Z,67.26
2018-07-23T16:54:48.726Z,67.08
2018-07-23T16:57:17.773Z,66.28
2018-07-23T16:59:48.833Z,65.64
2018-07-23T17:02:17.857Z,65.45
2018-07-23T17:04:47.368Z,66.89
2018-07-23T17:07:16.440Z,67.11
2018-07-23T17:09:48.695Z,68.95
2018-07-23T17:12:17.796Z,68.63
2018-07-23T17:14:47.886Z,69.86
2018-07-23T17:17:16.960Z,69.54
2018-07-23T17:19:46.037Z,69.87
2018-07-23T17:24:52.113Z,70.27
2018-07-23T17:27:23.088Z,72.14
2018-07-23T17:29:53.124Z,73.43
2018-07-23T17:32:23.188Z,73.19
2018-07-23T17:34:52.261Z,70.96
2018-07-23T17:37:23.504Z,73.64
2018-07-23T17:39:54.540Z,73.75
2018-07-23T17:42:33.979Z,75.19
2018-07-23T17:45:04.089Z,74.71
2018-07-23T17:47:33.091Z,74.83
2018-07-23T17:52:39.506Z,74.00
2018-07-23T17:55:08.646Z,76.24
2018-07-23T17:57:37.749Z,75.31
2018-07-23T18:00:07.984Z,75.42
2018-07-23T18:02:45.953Z,74.80
2018-07-23T18:05:16.070Z,75.48
2018-07-23T18:07:46.205Z,75.02
2018-07-23T18:10:17.333Z,76.89
2018-07-23T18:12:46.409Z,74.97
2018-07-23T18:15:16.417Z,77.63
2018-07-23T18:20:21.301Z,73.72
2018-07-23T18:22:54.569Z,77.22
2018-07-23T18:30:35.195Z,73.57
2018-07-23T18:33:04.274Z,77.47
2018-07-23T18:38:09.193Z,87.39
2018-07-23T18:40:38.235Z,87.46
2018-07-23T18:43:07.346Z,90.21
2018-07-23T18:45:38.388Z,91.15
2018-07-23T18:48:07.450Z,95.21
2018-07-23T18:50:36.501Z,97.48
2018-07-23T18:53:06.581Z,98.78
2018-07-23T18:55:35.661Z,100.00
2018-07-23T18:58:06.733Z,100.00
2018-07-23T19:05:47.365Z,100.00
2018-07-23T19:08:20.316Z,98.73
2018-07-23T19:10:50.345Z,98.82
2018-07-23T19:13:24.049Z,100.00
2018-07-23T19:15:57.793Z,100.00
2018-07-23T19:18:28.806Z,100.00
2018-07-23T19:26:11.686Z,100.00
2018-07-23T19:28:41.691Z,100.00
2018-07-23T19:31:12.759Z,100.00
2018-07-23T19:33:41.819Z,100.00
2018-07-23T19:36:12.859Z,100.00
2018-07-23T19:38:41.937Z,100.00
2018-07-23T19:43:46.741Z,100.00
2018-07-23T19:46:15.803Z,100.00
2018-07-23T19:48:46.852Z,100.00
2018-07-23T19:51:15.927Z,100.00
2018-07-23T19:56:20.761Z,96.84
2018-07-23T19:58:58.094Z,100.00
2018-07-23T20:01:29.132Z,100.00
2018-07-23T20:04:00.110Z,100.00
2018-07-23T20:06:32.773Z,100.00
2018-07-23T20:11:37.628Z,100.00
2018-07-23T20:14:08.697Z,100.00
2018-07-23T20:16:37.758Z,100.00
2018-07-23T20:19:10.534Z,100.00
2018-07-23T20:21:50.693Z,100.00
2018-07-23T20:24:19.789Z,100.00
2018-07-23T20:26:48.845Z,100.00
2018-07-23T20:29:17.921Z,100.00
2018-07-23T20:31:47.900Z,100.00
2018-07-23T20:34:16.976Z,100.00
2018-07-23T20:36:46.047Z,100.00
2018-07-23T20:39:15.114Z,100.00
2018-07-23T20:44:20.007Z,100.00
2018-07-23T20:46:49.049Z,100.00
2018-07-23T20:49:18.115Z,100.00
2018-07-23T20:51:47.174Z,100.00
2018-07-23T20:54:20.353Z,100.00
2018-07-23T20:59:26.231Z,100.00
2018-07-23T21:02:00.034Z,100.00
2018-07-23T21:04:31.099Z,100.00
2018-07-23T21:12:11.828Z,100.00
2018-07-23T21:14:40.892Z,100.00
2018-07-23T21:22:27.306Z,100.00
2018-07-23T21:25:02.374Z,100.00
2018-07-23T21:27:31.391Z,100.00
2018-07-23T21:30:00.459Z,100.00
2018-07-23T21:32:37.125Z,100.00
2018-07-23T21:35:19.805Z,100.00
2018-07-23T21:40:24.612Z,100.00
2018-07-23T21:42:53.748Z,100.00
2018-07-23T21:45:22.877Z,100.00
2018-07-23T21:47:51.960Z,100.00
2018-07-23T21:52:56.746Z,100.00
2018-07-23T21:58:01.598Z,100.00
2018-07-23T22:00:30.714Z,100.00
2018-07-23T22:05:40.039Z,100.00
2018-07-23T22:13:20.693Z,100.00
2018-07-23T22:15:49.797Z,100.00
2018-07-23T22:18:18.890Z,100.00
2018-07-23T22:20:47.961Z,100.00
2018-07-23T22:23:17.048Z,100.00
2018-07-23T22:25:47.080Z,100.00
2018-07-23T22:30:51.933Z,100.00
2018-07-23T22:33:26.225Z,100.00
2018-07-23T22:35:56.253Z,100.00
2018-07-23T22:38:27.299Z,100.00
2018-07-23T22:41:01.625Z,100.00
2018-07-23T22:43:30.707Z,100.00
2018-07-23T22:45:59.789Z,100.00
2018-07-23T22:51:04.590Z,100.00
2018-07-23T22:53:33.659Z,100.00
2018-07-23T22:56:06.348Z,100.00
2018-07-23T22:58:37.407Z,100.00
2018-07-23T23:01:10.190Z,100.00
2018-07-23T23:06:15.044Z,100.00
2018-07-23T23:08:44.117Z,100.00
2018-07-23T23:11:14.129Z,100.00
2018-07-23T23:13:43.201Z,100.00
2018-07-23T23:16:15.705Z,100.00
2018-07-23T23:18:44.845Z,100.00
2018-07-23T23:21:19.230Z,100.00
2018-07-23T23:23:48.312Z,100.00
2018-07-23T23:26:17.378Z,100.00
2018-07-23T23:28:50.948Z,100.00
2018-07-23T23:33:56.309Z,100.00
2018-07-23T23:36:25.441Z,100.00
2018-07-23T23:38:54.526Z,100.00
2018-07-23T23:43:59.375Z,100.00
2018-07-23T23:46:28.446Z,100.00
2018-07-23T23:48:57.507Z,100.00
2018-07-23T23:51:26.585Z,100.00
2018-07-23T23:53:55.668Z,100.00
2018-07-23T23:56:26.697Z,100.00
2018-07-23T23:58:55.769Z,100.00
